Terminal Aerodrome Forecast
Issued by NWS

Home | Current Version | Previous Version | Text Only | Print | Product List | Glossary On
Versions: 1 2 3 4 5 6 7 8 9 10 11 12 13 14
000
FTUS43 KILX 300744 AAA
TAFBMI
TAF AMD
KBMI 300744Z 3008/3106 VRB03KT 2SM BR BKN025
      TEMPO 3008/3012 1/2SM FG BKN001
     FM301400 16006KT P6SM BKN015
     FM301700 18005KT P6SM BKN050
     FM310100 19005KT P6SM SCT250=

USA.gov is the U.S. government's official web portal to all federal, state and local government web resources and services.